Time;durP1;ratioP1;P1;durP2;ratioP2;P2;SDS_P1;SDS_P2;PMS_P1;PMS_P2;Temp;Humidity;BMP_temperature;BMP_pressure;BME280_temperature;BME280_humidity;BME280_pressure;Samples;Min_cycle;Max_cycle;Signal;HPM_P1;HPM_P2
2023/01/01 00:01:04;;;;;;;26.33;15.70;;;13.40;99.90;;;;;;5060609;28;20029;-38
2023/01/01 00:03:30;;;;;;;27.52;17.13;;;13.40;99.90;;;;;;5063099;28;20086;-39
2023/01/01 00:05:55;;;;;;;31.63;18.20;;;13.40;99.90;;;;;;5055454;28;20049;-39
2023/01/01 00:08:21;;;;;;;31.75;18.02;;;13.40;99.90;;;;;;5060491;28;20040;-36
2023/01/01 00:10:47;;;;;;;25.27;15.25;;;13.30;99.90;;;;;;5040450;28;20040;-38
2023/01/01 00:13:13;;;;;;;29.65;15.55;;;13.30;99.90;;;;;;5061361;28;20051;-36
2023/01/01 00:15:39;;;;;;;24.80;14.48;;;13.30;99.90;;;;;;5057337;28;20045;-37
2023/01/01 00:18:05;;;;;;;22.95;14.70;;;13.30;99.90;;;;;;5062535;28;20785;-37
2023/01/01 00:20:30;;;;;;;29.95;16.40;;;13.30;99.90;;;;;;5058285;28;20025;-36
2023/01/01 00:22:56;;;;;;;27.60;15.15;;;13.30;99.90;;;;;;5062668;28;20040;-37
2023/01/01 00:25:23;;;;;;;25.30;14.43;;;13.30;99.90;;;;;;5055323;28;20063;-38
2023/01/01 00:27:48;;;;;;;30.52;15.75;;;13.30;99.90;;;;;;5064909;28;20048;-37
2023/01/01 00:30:14;;;;;;;30.05;16.00;;;13.30;99.90;;;;;;5062103;28;20044;-37
2023/01/01 00:32:40;;;;;;;27.80;15.80;;;13.30;99.90;;;;;;5060549;28;20036;-38
2023/01/01 00:35:06;;;;;;;27.70;17.35;;;13.30;99.90;;;;;;5063559;28;20045;-38
2023/01/01 00:37:32;;;;;;;28.30;15.75;;;13.40;99.90;;;;;;5059894;28;20095;-39
2023/01/01 00:39:57;;;;;;;28.67;18.00;;;13.40;99.90;;;;;;5061945;28;20497;-37
2023/01/01 00:42:23;;;;;;;26.88;14.10;;;13.40;99.90;;;;;;5062020;28;20510;-38
2023/01/01 00:44:49;;;;;;;20.20;13.13;;;13.40;99.90;;;;;;5055909;28;20417;-39
2023/01/01 00:47:14;;;;;;;27.25;14.85;;;13.40;99.90;;;;;;5064286;28;20090;-37
2023/01/01 00:49:40;;;;;;;26.35;13.40;;;13.40;99.90;;;;;;5065963;28;20163;-36
2023/01/01 00:52:05;;;;;;;27.20;15.98;;;13.40;99.90;;;;;;5063665;28;20048;-37
2023/01/01 00:54:31;;;;;;;28.17;15.52;;;13.40;99.90;;;;;;5057506;28;20588;-37
2023/01/01 00:56:57;;;;;;;23.30;14.68;;;13.40;99.90;;;;;;5039451;28;20144;-38
2023/01/01 00:59:23;;;;;;;29.55;14.30;;;13.30;99.90;;;;;;5062836;28;20124;-37
2023/01/01 01:01:48;;;;;;;28.73;15.18;;;13.40;99.90;;;;;;5064068;28;20501;-37
2023/01/01 01:04:14;;;;;;;23.40;15.20;;;13.40;99.90;;;;;;5067559;28;20044;-39
2023/01/01 01:06:40;;;;;;;28.88;16.60;;;13.40;99.90;;;;;;5061716;28;20040;-37
2023/01/01 01:09:06;;;;;;;27.60;14.93;;;13.40;99.90;;;;;;5068819;28;20521;-38
2023/01/01 01:11:32;;;;;;;23.58;13.98;;;13.50;99.90;;;;;;5059090;28;20295;-37
2023/01/01 01:13:57;;;;;;;26.20;14.85;;;13.40;99.90;;;;;;5049565;28;20119;-37
2023/01/01 01:16:27;;;;;;;23.52;14.40;;;13.40;99.90;;;;;;5068668;28;20486;-36
2023/01/01 01:18:56;;;;;;;23.92;13.75;;;13.40;99.90;;;;;;5060900;28;20039;-37
2023/01/01 01:21:23;;;;;;;24.27;13.13;;;13.50;99.90;;;;;;5067634;28;20044;-38
2023/01/01 01:23:50;;;;;;;26.90;15.27;;;13.50;99.90;;;;;;5065437;28;20433;-37
2023/01/01 01:26:24;;;;;;;28.23;14.10;;;13.50;99.90;;;;;;5063153;28;20532;-42
2023/01/01 01:28:51;;;;;;;25.33;13.25;;;13.40;99.90;;;;;;5045695;28;20140;-38
2023/01/01 01:31:19;;;;;;;23.05;12.05;;;13.40;99.90;;;;;;5067586;28;20437;-36
2023/01/01 01:33:45;;;;;;;19.77;12.50;;;13.40;99.90;;;;;;5067764;28;20045;-37
2023/01/01 01:36:12;;;;;;;24.52;12.32;;;13.40;99.90;;;;;;5068160;28;20036;-37
2023/01/01 01:38:38;;;;;;;22.60;11.23;;;13.40;99.90;;;;;;5060148;28;20032;-37
2023/01/01 01:41:04;;;;;;;17.67;10.20;;;13.40;99.90;;;;;;5057611;28;20382;-37
2023/01/01 01:43:30;;;;;;;20.00;10.68;;;13.40;99.90;;;;;;5068966;28;20064;-39
2023/01/01 01:46:07;;;;;;;21.88;10.98;;;13.40;99.90;;;;;;5064618;28;20118;-37
2023/01/01 01:48:38;;;;;;;24.20;10.45;;;13.40;99.90;;;;;;5063669;28;20048;-36
2023/01/01 01:51:04;;;;;;;17.90;9.80;;;13.40;99.90;;;;;;5059750;28;20052;-36
2023/01/01 01:53:36;;;;;;;15.68;9.40;;;13.30;99.90;;;;;;5074324;28;20097;-37
2023/01/01 01:56:07;;;;;;;25.17;9.53;;;13.30;99.90;;;;;;5065205;28;20063;-37
2023/01/01 01:58:33;;;;;;;22.02;9.52;;;13.30;99.90;;;;;;5067736;28;20044;-37
2023/01/01 02:01:00;;;;;;;14.60;7.93;;;13.20;99.90;;;;;;5066183;28;20033;-38
2023/01/01 02:03:38;;;;;;;17.67;8.45;;;13.20;99.90;;;;;;5065972;28;20058;-36
2023/01/01 02:06:04;;;;;;;19.60;6.22;;;13.20;99.90;;;;;;5043145;28;20048;-36
2023/01/01 02:08:31;;;;;;;16.30;7.93;;;13.10;99.90;;;;;;5057399;28;20047;-37
2023/01/01 02:10:57;;;;;;;13.35;7.40;;;13.20;99.90;;;;;;5059267;28;20174;-37
2023/01/01 02:13:22;;;;;;;15.38;6.40;;;13.20;99.90;;;;;;5065472;28;20033;-37
2023/01/01 02:15:55;;;;;;;16.88;6.45;;;13.20;99.90;;;;;;5067388;28;20041;-36
2023/01/01 02:18:50;;;;;;;15.05;6.40;;;13.20;99.90;;;;;;5048190;28;20046;-37
2023/01/01 02:21:21;;;;;;;14.30;6.07;;;13.20;99.90;;;;;;5054979;28;20436;-38
2023/01/01 02:23:52;;;;;;;13.73;5.90;;;13.20;99.90;;;;;;5059223;28;20044;-37
2023/01/01 02:26:55;;;;;;;14.87;5.27;;;13.20;99.90;;;;;;5052318;28;20047;-38
2023/01/01 02:29:24;;;;;;;;;;;13.10;99.90;;;;;;5073330;28;20127;-38
2023/01/01 02:32:04;;;;;;;10.38;4.50;;;13.20;99.90;;;;;;5068431;28;19975;-38
2023/01/01 02:34:37;;;;;;;11.20;4.45;;;13.20;99.90;;;;;;5069054;28;20050;-38
2023/01/01 02:37:05;;;;;;;15.48;6.15;;;13.20;99.90;;;;;;5063229;28;20036;-38
2023/01/01 02:39:34;;;;;;;12.77;5.38;;;13.20;99.90;;;;;;5064363;28;20033;-37
2023/01/01 02:42:04;;;;;;;11.63;4.20;;;13.20;99.90;;;;;;5067640;28;20040;-37
2023/01/01 02:44:34;;;;;;;11.75;3.47;;;13.30;99.90;;;;;;5067449;28;20040;-38
2023/01/01 02:47:08;;;;;;;7.55;3.47;;;13.30;99.90;;;;;;5063110;28;20055;-38
2023/01/01 02:49:38;;;;;;;8.88;3.20;;;13.40;99.90;;;;;;5067566;28;20529;-37
2023/01/01 02:52:39;;;;;;;6.65;2.75;;;13.50;99.90;;;;;;5064360;28;20165;-38
2023/01/01 02:55:40;;;;;;;15.00;3.28;;;13.60;99.90;;;;;;5020194;28;20060;-37
2023/01/01 03:01:23;;;;;;;10.27;2.08;;;13.80;99.90;;;;;;5062851;28;20134;-39
2023/01/01 03:04:14;;;;;;;5.97;2.10;;;13.80;99.90;;;;;;5060254;28;20494;-38
2023/01/01 03:07:01;;;;;;;7.90;2.30;;;13.80;99.90;;;;;;5062249;28;20131;-37
2023/01/01 03:09:42;;;;;;;4.65;1.52;;;13.80;99.90;;;;;;5073214;28;20050;-38
2023/01/01 03:12:16;;;;;;;5.72;1.33;;;13.90;99.90;;;;;;5067610;28;20416;-39
2023/01/01 03:14:57;;;;;;;8.05;1.85;;;13.90;99.90;;;;;;5061509;28;20920;-37
2023/01/01 03:17:31;;;;;;;7.20;1.40;;;13.90;99.90;;;;;;5062841;28;20036;-38
2023/01/01 03:20:00;;;;;;;5.30;1.52;;;13.90;99.90;;;;;;5058746;28;20921;-38
2023/01/01 03:22:31;;;;;;;6.85;1.50;;;14.00;99.90;;;;;;5064969;28;20397;-40
2023/01/01 03:25:11;;;;;;;6.93;1.65;;;14.00;99.40;;;;;;5064129;28;20409;-37
2023/01/01 03:27:47;;;;;;;6.30;1.80;;;14.00;99.90;;;;;;5073464;28;20041;-38
2023/01/01 03:30:15;;;;;;;6.38;2.03;;;14.00;99.90;;;;;;5066720;28;20083;-37
2023/01/01 03:33:02;;;;;;;6.93;1.35;;;14.10;99.30;;;;;;5064984;28;20044;-37
2023/01/01 03:35:50;;;;;;;7.20;2.95;;;14.00;99.60;;;;;;5061083;28;20561;-37
2023/01/01 03:38:40;;;;;;;4.72;1.20;;;14.00;99.60;;;;;;5066240;28;20132;-38
2023/01/01 03:41:38;;;;;;;4.25;1.15;;;13.90;99.90;;;;;;5057067;28;20044;-37
2023/01/01 03:44:12;;;;;;;3.75;1.17;;;13.90;99.90;;;;;;5038169;28;20482;-37
2023/01/01 03:46:38;;;;;;;7.10;1.70;;;13.80;99.90;;;;;;5062927;28;20124;-38
2023/01/01 03:49:06;;;;;;;5.53;1.20;;;13.80;99.90;;;;;;5063755;28;20509;-37
2023/01/01 03:51:54;;;;;;;3.30;1.00;;;13.80;99.90;;;;;;5069953;28;20055;-38
2023/01/01 03:54:29;;;;;;;6.03;1.20;;;13.90;99.70;;;;;;5055661;28;20086;-37
2023/01/01 03:57:05;;;;;;;8.57;1.40;;;13.90;99.20;;;;;;5067456;28;20032;-37
2023/01/01 03:59:40;;;;;;;6.82;1.20;;;13.90;99.40;;;;;;5060959;28;20038;-38
2023/01/01 04:02:08;;;;;;;6.32;1.42;;;13.90;99.10;;;;;;5064250;28;20044;-40
2023/01/01 04:04:34;;;;;;;6.38;1.10;;;14.00;99.30;;;;;;5059323;28;20520;-38
2023/01/01 04:07:00;;;;;;;6.00;1.02;;;13.90;99.40;;;;;;5067801;28;20041;-37
2023/01/01 04:09:30;;;;;;;4.32;0.90;;;13.90;99.70;;;;;;5061760;28;22026;-38
2023/01/01 04:12:00;;;;;;;4.45;1.70;;;13.90;99.70;;;;;;5056906;28;20380;-37
2023/01/01 04:14:44;;;;;;;5.93;1.23;;;13.90;99.60;;;;;;5048421;28;20041;-37
2023/01/01 04:17:13;;;;;;;5.82;1.35;;;13.80;99.70;;;;;;5070914;28;20040;-38
2023/01/01 04:19:38;;;;;;;5.18;1.15;;;13.80;99.90;;;;;;5069069;28;20127;-38
2023/01/01 04:22:04;;;;;;;4.85;1.30;;;13.80;99.90;;;;;;5066675;28;20132;-37
2023/01/01 04:24:30;;;;;;;4.82;1.30;;;13.80;99.40;;;;;;5072320;28;20040;-38
2023/01/01 04:26:55;;;;;;;4.28;1.25;;;13.90;99.40;;;;;;5070573;28;20125;-38
2023/01/01 04:29:22;;;;;;;7.63;1.25;;;13.90;99.50;;;;;;5064656;28;20106;-37
2023/01/01 04:31:48;;;;;;;7.60;1.02;;;13.90;99.30;;;;;;5071683;28;20048;-38
2023/01/01 04:34:14;;;;;;;5.97;1.00;;;13.90;99.20;;;;;;5068070;28;20043;-38
2023/01/01 04:36:40;;;;;;;4.82;1.10;;;13.90;99.20;;;;;;5067092;28;20036;-38
2023/01/01 04:39:05;;;;;;;3.92;0.90;;;13.90;99.10;;;;;;5049097;28;20039;-38
2023/01/01 04:41:32;;;;;;;5.35;0.88;;;13.90;99.50;;;;;;5063808;28;20457;-38
2023/01/01 04:43:58;;;;;;;4.25;1.35;;;13.90;99.20;;;;;;5063639;28;20033;-38
2023/01/01 04:46:24;;;;;;;4.50;0.95;;;13.80;99.50;;;;;;5070712;28;20426;-37
2023/01/01 04:48:50;;;;;;;6.75;1.20;;;13.80;99.50;;;;;;5068324;28;20039;-37
2023/01/01 04:51:18;;;;;;;7.45;2.00;;;13.70;99.60;;;;;;5067056;28;20493;-38
2023/01/01 04:53:44;;;;;;;2.42;0.80;;;13.70;99.60;;;;;;5018059;28;20071;-44
2023/01/01 04:56:12;;;;;;;10.63;1.40;;;13.70;99.60;;;;;;5072719;28;20145;-37
2023/01/01 04:58:39;;;;;;;7.10;0.82;;;13.70;99.50;;;;;;5084431;28;20074;-37
2023/01/01 05:01:06;;;;;;;3.47;0.82;;;13.70;99.80;;;;;;5066820;28;20040;-37
2023/01/01 05:03:32;;;;;;;3.58;0.80;;;13.70;99.60;;;;;;5065462;28;20063;-38
2023/01/01 05:06:10;;;;;;;6.65;0.80;;;13.70;99.90;;;;;;5069575;28;20485;-37
2023/01/01 05:08:38;;;;;;;4.10;0.70;;;13.70;99.80;;;;;;5064691;28;20043;-40
2023/01/01 05:11:07;;;;;;;5.68;0.70;;;13.60;99.90;;;;;;5060461;28;20254;-38
2023/01/01 05:13:37;;;;;;;5.97;1.15;;;13.50;99.90;;;;;;5069279;28;20541;-38
2023/01/01 05:16:07;;;;;;;2.22;0.50;;;13.50;99.90;;;;;;5067563;28;20032;-37
2023/01/01 05:18:35;;;;;;;4.97;0.82;;;13.40;99.80;;;;;;5045404;28;20052;-37
2023/01/01 05:21:01;;;;;;;2.15;0.43;;;13.40;99.70;;;;;;5067435;28;20390;-37
2023/01/01 05:23:28;;;;;;;4.93;0.73;;;13.40;99.50;;;;;;5060918;28;20482;-38
2023/01/01 05:25:54;;;;;;;6.50;0.70;;;13.40;99.40;;;;;;5066878;28;20123;-38
2023/01/01 05:28:20;;;;;;;3.38;0.50;;;13.40;99.40;;;;;;5061670;28;20452;-38
2023/01/01 05:30:46;;;;;;;4.88;0.60;;;13.30;99.60;;;;;;5068445;28;20037;-37
2023/01/01 05:33:12;;;;;;;2.85;0.50;;;13.30;99.50;;;;;;5067665;28;20039;-39
2023/01/01 05:35:38;;;;;;;2.08;0.40;;;13.20;99.60;;;;;;5064754;28;20123;-37
2023/01/01 05:38:04;;;;;;;6.85;0.88;;;13.20;99.90;;;;;;5067070;28;20128;-37
2023/01/01 05:40:30;;;;;;;5.93;0.45;;;13.10;99.90;;;;;;5045368;28;20554;-39
2023/01/01 05:42:55;;;;;;;2.83;0.50;;;13.10;99.60;;;;;;5066763;28;20035;-37
2023/01/01 05:45:21;;;;;;;2.63;0.40;;;13.10;99.80;;;;;;5069235;28;20041;-38
2023/01/01 05:47:47;;;;;;;1.65;0.68;;;13.00;99.90;;;;;;5065956;28;20081;-37
2023/01/01 05:50:13;;;;;;;3.75;0.50;;;13.00;99.90;;;;;;5062611;28;20056;-37
2023/01/01 05:52:38;;;;;;;4.95;0.70;;;13.00;99.90;;;;;;5063343;28;20069;-37
2023/01/01 05:55:04;;;;;;;5.47;0.85;;;12.90;99.90;;;;;;5070095;28;20576;-38
2023/01/01 05:57:30;;;;;;;1.95;0.40;;;12.90;99.90;;;;;;5065406;28;20043;-38
2023/01/01 05:59:56;;;;;;;3.38;0.25;;;12.90;99.90;;;;;;5064478;28;20036;-39
2023/01/01 06:02:22;;;;;;;3.92;0.90;;;12.80;99.90;;;;;;5059920;28;20033;-40
2023/01/01 06:04:47;;;;;;;2.65;0.60;;;12.80;99.90;;;;;;5065544;28;20040;-38
2023/01/01 06:07:13;;;;;;;4.68;0.60;;;12.80;99.90;;;;;;5064692;28;20045;-37
2023/01/01 06:09:39;;;;;;;3.80;0.82;;;12.70;99.90;;;;;;5068658;28;20091;-38
2023/01/01 06:12:05;;;;;;;4.88;0.60;;;12.70;99.90;;;;;;5068864;28;20036;-41
2023/01/01 06:14:30;;;;;;;4.57;0.65;;;12.70;99.90;;;;;;5063874;28;20062;-40
2023/01/01 06:16:56;;;;;;;6.18;0.65;;;12.70;99.90;;;;;;5068690;28;20502;-38
2023/01/01 06:19:22;;;;;;;3.70;0.57;;;12.70;99.90;;;;;;5048965;28;20032;-40
2023/01/01 06:21:47;;;;;;;3.53;0.70;;;12.60;99.90;;;;;;5052928;28;20042;-38
2023/01/01 06:24:13;;;;;;;4.72;0.85;;;12.60;99.90;;;;;;5070303;28;20469;-40
2023/01/01 06:26:39;;;;;;;2.38;0.70;;;12.50;99.90;;;;;;5057186;28;20478;-38
2023/01/01 06:29:05;;;;;;;4.45;0.90;;;12.50;99.90;;;;;;5023759;28;20405;-38
2023/01/01 06:31:31;;;;;;;7.68;1.05;;;12.50;99.90;;;;;;5065604;28;20032;-38
2023/01/01 06:33:56;;;;;;;6.68;1.17;;;12.60;99.90;;;;;;5060088;28;20037;-38
2023/01/01 06:36:24;;;;;;;6.13;1.02;;;12.60;99.90;;;;;;5063069;28;20045;-40
2023/01/01 06:38:52;;;;;;;3.72;0.60;;;12.50;99.90;;;;;;5047730;28;20112;-38
2023/01/01 06:41:20;;;;;;;4.15;0.80;;;12.50;99.90;;;;;;5067894;28;20116;-38
2023/01/01 06:43:46;;;;;;;10.10;1.17;;;12.50;99.90;;;;;;5064989;28;20033;-40
2023/01/01 06:46:21;;;;;;;8.52;0.85;;;12.40;99.90;;;;;;5066713;28;20403;-39
2023/01/01 06:48:49;;;;;;;4.20;0.73;;;12.40;99.90;;;;;;5070746;28;20047;-37
2023/01/01 06:51:18;;;;;;;5.82;0.70;;;12.30;99.90;;;;;;5067258;28;20502;-38
2023/01/01 06:53:44;;;;;;;8.35;0.70;;;12.30;99.90;;;;;;5071165;28;20036;-38
2023/01/01 06:56:10;;;;;;;4.93;0.65;;;12.30;99.90;;;;;;5069970;28;20127;-37
2023/01/01 06:58:35;;;;;;;4.63;0.63;;;12.30;99.90;;;;;;5070161;28;20118;-38
2023/01/01 07:01:11;;;;;;;4.15;1.10;;;12.30;99.90;;;;;;5068413;28;20040;-38
2023/01/01 07:03:38;;;;;;;8.38;0.68;;;12.30;99.90;;;;;;5045786;28;20044;-39
2023/01/01 07:06:05;;;;;;;6.43;1.10;;;12.40;99.90;;;;;;5070384;28;20770;-38
2023/01/01 07:08:31;;;;;;;3.97;0.70;;;12.30;99.90;;;;;;5062421;28;20066;-39
2023/01/01 07:10:57;;;;;;;3.60;0.60;;;12.30;99.90;;;;;;5063348;28;20538;-38
2023/01/01 07:13:27;;;;;;;3.65;0.80;;;12.30;99.90;;;;;;5063017;28;20032;-38
2023/01/01 07:15:53;;;;;;;5.43;1.00;;;12.30;99.90;;;;;;5065641;28;20136;-40
2023/01/01 07:18:19;;;;;;;5.72;0.57;;;12.30;99.90;;;;;;5068625;28;20457;-38
2023/01/01 07:20:56;;;;;;;4.63;0.75;;;12.30;99.90;;;;;;5060906;28;20040;-37
2023/01/01 07:23:23;;;;;;;7.63;0.70;;;12.30;99.90;;;;;;5060781;28;20498;-39
2023/01/01 07:25:50;;;;;;;4.13;0.70;;;12.20;99.90;;;;;;5061950;28;20502;-39
2023/01/01 07:28:15;;;;;;;3.70;0.60;;;12.20;99.90;;;;;;5062686;28;20119;-37
2023/01/01 07:30:41;;;;;;;8.82;1.30;;;12.20;99.90;;;;;;5060910;28;21482;-38
2023/01/01 07:33:12;;;;;;;3.72;0.50;;;12.20;99.90;;;;;;5068119;28;20441;-38
2023/01/01 07:35:38;;;;;;;6.43;0.93;;;12.20;99.90;;;;;;5044033;28;20049;-38
2023/01/01 07:38:04;;;;;;;5.35;0.77;;;12.10;99.90;;;;;;5066102;28;20035;-38
2023/01/01 07:40:30;;;;;;;6.10;1.05;;;12.10;99.90;;;;;;5065242;28;20474;-39
2023/01/01 07:42:55;;;;;;;5.85;0.70;;;12.10;99.90;;;;;;5065877;28;20052;-38
2023/01/01 07:45:21;;;;;;;4.43;0.45;;;12.10;99.90;;;;;;5064446;28;20059;-39
2023/01/01 07:47:52;;;;;;;3.30;0.50;;;12.00;99.90;;;;;;5071673;28;20564;-38
2023/01/01 07:50:18;;;;;;;4.85;0.68;;;12.00;99.90;;;;;;5058709;28;20522;-40
2023/01/01 07:52:44;;;;;;;6.07;0.80;;;11.90;99.90;;;;;;5069448;28;20145;-37
2023/01/01 07:55:19;;;;;;;5.20;0.50;;;11.90;99.90;;;;;;5065880;28;20506;-38
2023/01/01 07:57:45;;;;;;;8.00;0.65;;;11.90;99.90;;;;;;5058765;28;20047;-38
2023/01/01 08:00:14;;;;;;;5.57;0.80;;;11.90;99.90;;;;;;5063956;28;20036;-38
2023/01/01 08:02:40;;;;;;;3.67;0.60;;;12.00;99.90;;;;;;5060958;28;20474;-38
2023/01/01 08:05:06;;;;;;;4.55;0.75;;;11.90;99.90;;;;;;5057534;28;20043;-38
2023/01/01 08:07:32;;;;;;;3.97;0.70;;;11.90;99.90;;;;;;5040339;28;20574;-38
2023/01/01 08:09:58;;;;;;;4.80;0.60;;;11.90;99.90;;;;;;5062928;28;20067;-40
2023/01/01 08:12:24;;;;;;;2.83;0.95;;;11.90;99.90;;;;;;5059728;28;20531;-38
2023/01/01 08:14:50;;;;;;;4.72;1.23;;;11.80;99.90;;;;;;5060171;28;20044;-38
2023/01/01 08:17:16;;;;;;;6.40;0.85;;;11.80;99.90;;;;;;5061094;28;20042;-37
2023/01/01 08:19:43;;;;;;;5.55;0.50;;;11.80;99.90;;;;;;5062646;28;20128;-38
2023/01/01 08:22:09;;;;;;;3.45;0.88;;;11.70;99.90;;;;;;5055103;28;20044;-38
2023/01/01 08:24:35;;;;;;;3.28;0.63;;;11.70;99.90;;;;;;5047475;28;20044;-38
2023/01/01 08:27:01;;;;;;;7.10;0.80;;;11.70;99.90;;;;;;5059086;28;20047;-39
2023/01/01 08:29:26;;;;;;;3.17;0.40;;;11.70;99.90;;;;;;5061777;28;20376;-39
2023/01/01 08:31:52;;;;;;;9.88;0.60;;;11.60;99.90;;;;;;5058748;28;20116;-38
2023/01/01 08:34:18;;;;;;;5.88;0.77;;;11.60;99.90;;;;;;5057319;28;21492;-40
2023/01/01 08:36:43;;;;;;;6.68;0.60;;;11.60;99.90;;;;;;5064900;28;20036;-38
2023/01/01 08:39:09;;;;;;;7.88;0.75;;;11.60;99.90;;;;;;5060711;28;20052;-38
2023/01/01 08:41:35;;;;;;;3.47;0.70;;;11.60;99.90;;;;;;5069233;28;20035;-39
2023/01/01 08:44:01;;;;;;;8.13;0.60;;;11.60;99.90;;;;;;5058498;28;20029;-38
2023/01/01 08:46:27;;;;;;;5.03;0.68;;;11.60;99.90;;;;;;5063501;28;20036;-38
2023/01/01 08:48:53;;;;;;;3.90;0.68;;;11.60;99.90;;;;;;5050034;28;20126;-38
2023/01/01 08:51:18;;;;;;;6.43;0.85;;;11.60;99.90;;;;;;5046319;28;20044;-39
2023/01/01 08:53:44;;;;;;;8.32;1.30;;;11.60;99.90;;;;;;5065487;28;20037;-38
2023/01/01 08:56:11;;;;;;;2.35;0.50;;;11.60;99.90;;;;;;5069743;28;20044;-38
2023/01/01 08:58:38;;;;;;;6.88;0.75;;;11.60;99.90;;;;;;5067151;28;20036;-37
2023/01/01 09:01:05;;;;;;;9.63;1.50;;;11.60;99.90;;;;;;5067352;28;20048;-38
2023/01/01 09:03:32;;;;;;;7.80;1.02;;;11.50;99.90;;;;;;5072331;28;20509;-38
2023/01/01 09:05:58;;;;;;;7.22;0.90;;;11.50;99.90;;;;;;5069598;28;20039;-39
2023/01/01 09:08:24;;;;;;;9.10;0.73;;;11.50;99.90;;;;;;5066339;28;20044;-39
2023/01/01 09:10:50;;;;;;;7.75;0.70;;;11.60;99.90;;;;;;5050780;28;20063;-39
2023/01/01 09:13:19;;;;;;;11.50;1.38;;;11.60;99.90;;;;;;5062215;28;20052;-38
2023/01/01 09:15:45;;;;;;;4.30;1.05;;;11.60;99.90;;;;;;5049658;28;20040;-38
2023/01/01 09:18:11;;;;;;;7.40;1.45;;;11.60;99.90;;;;;;5062405;28;20037;-37
2023/01/01 09:20:37;;;;;;;5.05;1.15;;;11.50;99.90;;;;;;5065597;28;20040;-38
2023/01/01 09:23:04;;;;;;;5.55;0.88;;;11.50;99.90;;;;;;5077169;28;20032;-40
2023/01/01 09:25:30;;;;;;;5.03;0.70;;;11.50;99.90;;;;;;5067352;28;20123;-37
2023/01/01 09:27:57;;;;;;;4.18;0.73;;;11.50;99.90;;;;;;5072560;28;20131;-37
2023/01/01 09:30:23;;;;;;;7.30;0.82;;;11.50;99.90;;;;;;5065675;28;20500;-38
2023/01/01 09:32:49;;;;;;;5.95;0.73;;;11.50;99.90;;;;;;5081750;28;20067;-37
2023/01/01 09:35:15;;;;;;;5.57;0.80;;;11.50;99.90;;;;;;5062072;28;20039;-38
2023/01/01 09:37:40;;;;;;;5.75;0.50;;;11.50;99.90;;;;;;5068519;28;20093;-38
2023/01/01 09:40:08;;;;;;;4.38;0.52;;;11.50;99.90;;;;;;5062985;28;20041;-37
2023/01/01 09:42:46;;;;;;;4.15;0.52;;;11.50;99.90;;;;;;5071235;28;20040;-38
2023/01/01 09:45:27;;;;;;;6.82;1.30;;;11.60;99.90;;;;;;5067503;28;20047;-39
2023/01/01 09:48:01;;;;;;;4.30;0.50;;;11.60;99.90;;;;;;5073820;28;20040;-38
2023/01/01 09:50:38;;;;;;;18.70;3.45;;;11.60;99.90;;;;;;5065430;28;20057;-41
2023/01/01 09:53:36;;;;;;;4.00;0.40;;;11.70;99.90;;;;;;5063700;28;20059;-38
2023/01/01 09:56:04;;;;;;;6.28;0.40;;;11.70;99.90;;;;;;5066311;28;20272;-38
2023/01/01 09:58:35;;;;;;;5.07;0.65;;;11.70;99.90;;;;;;5061166;28;20465;-38
2023/01/01 10:01:16;;;;;;;4.30;0.60;;;11.70;99.90;;;;;;5066298;28;20028;-38
2023/01/01 10:03:52;;;;;;;2.90;0.47;;;11.70;99.90;;;;;;5061511;28;20184;-38
2023/01/01 10:06:26;;;;;;;5.53;0.55;;;11.70;99.90;;;;;;5072356;28;20119;-40
2023/01/01 10:08:55;;;;;;;12.40;0.90;;;11.70;99.90;;;;;;5064823;28;20071;-39
2023/01/01 10:11:36;;;;;;;6.53;0.50;;;11.60;99.90;;;;;;5057524;28;20055;-39
2023/01/01 10:14:18;;;;;;;8.38;0.73;;;11.70;99.90;;;;;;5064132;28;20044;-38
2023/01/01 10:16:47;;;;;;;5.70;0.50;;;11.70;99.90;;;;;;5073071;28;20044;-39
2023/01/01 10:19:25;;;;;;;8.88;0.95;;;11.70;99.90;;;;;;5070739;28;20553;-50
2023/01/01 10:21:54;;;;;;;3.55;0.55;;;11.70;99.90;;;;;;5068505;28;20259;-49
2023/01/01 10:24:47;;;;;;;4.60;0.68;;;11.80;99.90;;;;;;5064293;28;20497;-38
2023/01/01 10:27:35;;;;;;;4.07;0.57;;;11.80;99.90;;;;;;5063782;28;20044;-38
2023/01/01 10:30:08;;;;;;;10.43;0.68;;;11.90;99.90;;;;;;5070451;28;20048;-38
2023/01/01 10:32:35;;;;;;;;;;;12.00;99.90;;;;;;5064251;28;20107;-39
2023/01/01 10:35:03;;;;;;;6.95;0.70;;;12.10;99.90;;;;;;5068217;28;19927;-38
2023/01/01 10:37:35;;;;;;;6.95;1.35;;;12.10;99.90;;;;;;5061049;28;20047;-38
2023/01/01 10:40:06;;;;;;;9.70;0.98;;;12.10;99.90;;;;;;5064146;28;20123;-37
2023/01/01 10:42:32;;;;;;;7.57;0.70;;;12.10;99.90;;;;;;5065619;28;20166;-38
2023/01/01 10:45:01;;;;;;;6.55;0.70;;;12.10;99.90;;;;;;5067749;28;20063;-38
2023/01/01 10:47:28;;;;;;;2.67;0.40;;;12.20;99.90;;;;;;5064851;28;20044;-38
2023/01/01 10:49:59;;;;;;;7.15;0.50;;;12.20;99.90;;;;;;5060682;28;20052;-42
2023/01/01 10:52:34;;;;;;;6.72;0.80;;;12.40;99.90;;;;;;5062221;28;20068;-38
2023/01/01 10:55:00;;;;;;;6.55;0.70;;;12.50;99.90;;;;;;5060042;28;20044;-38
2023/01/01 10:57:39;;;;;;;5.90;0.50;;;12.50;99.90;;;;;;5062057;28;20033;-38
2023/01/01 11:00:19;;;;;;;6.57;0.80;;;12.60;99.90;;;;;;5061474;28;20085;-38
2023/01/01 11:02:45;;;;;;;5.90;0.80;;;12.60;99.90;;;;;;5063582;28;20036;-39
2023/01/01 11:05:20;;;;;;;11.88;1.05;;;12.70;99.70;;;;;;5065653;28;20089;-40
2023/01/01 11:07:47;;;;;;;6.28;0.75;;;13.00;99.30;;;;;;5041437;28;20746;-38
2023/01/01 11:10:21;;;;;;;9.57;1.17;;;13.20;98.30;;;;;;5073057;28;20508;-38
2023/01/01 11:12:49;;;;;;;6.53;0.65;;;13.40;98.00;;;;;;5058141;28;20098;-40
2023/01/01 11:15:38;;;;;;;5.95;0.70;;;13.60;98.10;;;;;;5040849;28;20044;-38
2023/01/01 11:18:18;;;;;;;8.20;0.70;;;13.60;97.50;;;;;;5054927;28;20040;-38
2023/01/01 11:20:56;;;;;;;6.40;0.80;;;13.60;97.50;;;;;;5055902;28;20064;-38
2023/01/01 11:23:37;;;;;;;7.07;0.77;;;13.50;98.00;;;;;;5054497;28;20045;-39
2023/01/01 11:26:12;;;;;;;7.72;0.73;;;13.30;97.70;;;;;;5061624;28;20556;-38
2023/01/01 11:28:39;;;;;;;4.35;0.90;;;13.20;98.50;;;;;;5056889;28;20513;-38
2023/01/01 11:31:16;;;;;;;7.28;0.57;;;13.10;98.60;;;;;;5061739;28;20071;-38
2023/01/01 11:33:55;;;;;;;7.97;0.85;;;13.00;99.10;;;;;;5056462;28;20040;-38
2023/01/01 11:36:33;;;;;;;4.53;0.75;;;12.90;99.60;;;;;;5053885;28;20037;-39
2023/01/01 11:39:25;;;;;;;7.55;0.80;;;12.80;99.80;;;;;;5057910;28;20463;-38
2023/01/01 11:41:54;;;;;;;3.90;0.65;;;12.80;99.90;;;;;;5067569;28;20051;-39
2023/01/01 11:44:34;;;;;;;5.93;0.77;;;12.90;99.90;;;;;;5053249;28;20397;-38
2023/01/01 11:47:01;;;;;;;6.25;0.52;;;12.90;99.80;;;;;;5060302;28;20115;-40
2023/01/01 11:49:29;;;;;;;9.27;1.50;;;13.00;99.40;;;;;;5058198;28;20814;-38
2023/01/01 11:51:56;;;;;;;7.70;1.13;;;12.90;99.30;;;;;;5061175;28;20040;-38
2023/01/01 11:54:32;;;;;;;3.88;0.60;;;13.00;99.30;;;;;;5028218;28;20045;-38
2023/01/01 11:57:22;;;;;;;6.70;0.45;;;13.40;98.40;;;;;;5044754;28;20107;-39
2023/01/01 12:00:03;;;;;;;6.75;0.80;;;13.80;97.40;;;;;;5057793;28;20427;-38
2023/01/01 12:02:41;;;;;;;7.57;1.00;;;13.60;96.80;;;;;;5057708;28;20121;-39
2023/01/01 12:05:15;;;;;;;4.97;1.48;;;13.40;97.10;;;;;;5057264;28;20551;-38
2023/01/01 12:07:43;;;;;;;6.97;0.65;;;13.10;98.10;;;;;;5054340;28;20537;-38
2023/01/01 12:10:35;;;;;;;7.03;1.00;;;13.00;98.30;;;;;;5057074;28;20041;-39
2023/01/01 12:13:10;;;;;;;9.48;1.48;;;12.80;99.00;;;;;;5067015;28;20041;-38
2023/01/01 12:15:47;;;;;;;6.70;1.00;;;12.70;98.80;;;;;;5058630;28;20049;-38
2023/01/01 12:18:16;;;;;;;6.60;1.08;;;12.70;99.30;;;;;;5058012;28;20076;-37
2023/01/01 12:21:07;;;;;;;8.70;1.00;;;12.60;99.60;;;;;;5055721;28;20340;-38
2023/01/01 12:23:34;;;;;;;8.68;0.73;;;12.60;99.80;;;;;;5040644;28;20028;-38
2023/01/01 12:26:08;;;;;;;7.15;0.88;;;12.50;99.90;;;;;;5060214;28;20083;-46
2023/01/01 12:28:39;;;;;;;5.90;0.90;;;12.50;99.90;;;;;;5061104;28;20432;-45
2023/01/01 12:31:35;;;;;;;9.32;0.70;;;12.50;99.90;;;;;;5043824;28;20698;-49
2023/01/01 12:34:28;;;;;;;5.53;0.75;;;12.50;99.90;;;;;;5061551;28;20168;-44
2023/01/01 12:36:57;;;;;;;7.07;1.00;;;12.50;99.90;;;;;;5061658;28;20036;-46
2023/01/01 12:39:53;;;;;;;8.85;1.38;;;12.40;99.90;;;;;;5066971;28;20123;-50
2023/01/01 12:42:39;;;;;;;4.95;0.70;;;12.40;99.90;;;;;;5065025;28;20074;-47
2023/01/01 12:45:11;;;;;;;6.93;0.88;;;12.40;99.90;;;;;;5068548;28;20142;-39
2023/01/01 12:47:56;;;;;;;6.85;1.10;;;12.40;99.90;;;;;;5062444;28;20044;-46
2023/01/01 12:50:28;;;;;;;3.80;0.80;;;12.30;99.90;;;;;;5067839;28;20056;-43
2023/01/01 12:53:16;;;;;;;6.70;0.93;;;12.30;99.90;;;;;;5063630;28;20284;-49
2023/01/01 12:56:13;;;;;;;6.47;0.93;;;12.30;99.90;;;;;;5059357;28;20052;-40
2023/01/01 12:58:59;;;;;;;8.38;1.48;;;12.30;99.90;;;;;;5047993;28;20041;-51
2023/01/01 13:01:30;;;;;;;8.00;1.10;;;12.30;99.90;;;;;;5045175;28;20182;-49
2023/01/01 13:04:00;;;;;;;8.15;1.00;;;12.20;99.90;;;;;;5056826;28;20417;-46